createdAt,value
2023-05-09T00:00:23.567Z,6.50
2023-05-09T00:03:12.740Z,6.65
2023-05-09T00:06:00.028Z,10.00
2023-05-09T00:08:47.303Z,6.72
2023-05-09T00:11:34.643Z,6.60
2023-05-09T00:14:21.922Z,7.18
2023-05-09T00:17:09.699Z,6.82
2023-05-09T00:19:56.907Z,7.93
2023-05-09T00:22:44.165Z,6.43
2023-05-09T00:25:31.616Z,6.10
2023-05-09T00:28:20.086Z,7.45
2023-05-09T00:31:07.371Z,7.10
2023-05-09T00:33:54.671Z,7.43
2023-05-09T00:36:42.177Z,8.00
2023-05-09T00:39:29.426Z,6.80
2023-05-09T00:42:16.716Z,7.75
2023-05-09T00:45:04.290Z,7.05
2023-05-09T00:47:51.620Z,6.35
2023-05-09T00:50:38.897Z,8.00
2023-05-09T00:53:27.710Z,9.77
2023-05-09T00:56:15.699Z,7.05
2023-05-09T00:59:03.367Z,6.38
2023-05-09T01:01:50.904Z,6.20
2023-05-09T01:04:38.644Z,6.50
2023-05-09T01:07:49.104Z,7.22
2023-05-09T01:10:42.345Z,7.78
2023-05-09T01:13:46.051Z,8.48
2023-05-09T01:16:45.938Z,9.30
2023-05-09T01:19:45.158Z,7.68
2023-05-09T01:22:36.399Z,8.07
2023-05-09T01:25:36.270Z,6.45
2023-05-09T01:28:55.571Z,6.15
2023-05-09T01:31:45.243Z,7.53
2023-05-09T01:34:34.006Z,8.23
2023-05-09T01:37:29.481Z,7.30
2023-05-09T01:40:20.843Z,6.68
2023-05-09T01:43:11.032Z,6.47
2023-05-09T01:45:59.757Z,6.80
2023-05-09T01:48:48.208Z,10.02
2023-05-09T01:51:37.659Z,6.53
2023-05-09T01:54:26.290Z,7.13
2023-05-09T01:57:15.114Z,10.50
2023-05-09T02:00:03.886Z,9.30
2023-05-09T02:02:53.033Z,7.60
2023-05-09T02:05:42.020Z,8.38
2023-05-09T02:08:29.736Z,6.85
2023-05-09T02:11:16.968Z,7.15
2023-05-09T02:14:04.150Z,7.22
2023-05-09T02:16:51.397Z,7.47
2023-05-09T02:19:38.649Z,6.78
2023-05-09T02:22:26.179Z,6.78
2023-05-09T02:25:17.229Z,6.45
2023-05-09T02:28:04.820Z,8.13
2023-05-09T02:30:53.349Z,8.32
2023-05-09T02:33:42.892Z,8.20
2023-05-09T02:36:31.660Z,7.15
2023-05-09T02:39:18.819Z,6.63
2023-05-09T02:42:10.892Z,8.98
2023-05-09T02:44:58.081Z,6.80
2023-05-09T02:47:45.356Z,6.32
2023-05-09T02:50:32.509Z,6.68
2023-05-09T02:53:19.676Z,8.18
2023-05-09T02:56:07.076Z,9.77
2023-05-09T02:58:54.283Z,7.82
2023-05-09T03:01:41.525Z,6.80
2023-05-09T03:04:28.797Z,7.90
2023-05-09T03:07:16.227Z,8.57
2023-05-09T03:10:03.728Z,8.50
2023-05-09T03:12:50.914Z,6.43
2023-05-09T03:15:38.191Z,6.72
2023-05-09T03:18:25.437Z,7.03
2023-05-09T03:21:12.795Z,6.57
2023-05-09T03:24:00.215Z,7.20
2023-05-09T03:26:47.460Z,6.90
2023-05-09T03:29:34.720Z,6.70
2023-05-09T03:32:21.999Z,7.25
2023-05-09T03:35:09.272Z,7.22
2023-05-09T03:37:56.465Z,7.15
2023-05-09T03:40:43.751Z,7.47
2023-05-09T03:43:30.964Z,7.45
2023-05-09T03:46:18.273Z,6.15
2023-05-09T03:49:05.458Z,7.18
2023-05-09T03:51:52.794Z,5.97
2023-05-09T03:54:39.949Z,7.85
2023-05-09T03:57:27.192Z,7.72
2023-05-09T04:00:14.790Z,7.15
2023-05-09T04:03:02.424Z,6.90
2023-05-09T04:05:49.694Z,7.93
2023-05-09T04:08:37.098Z,6.82
2023-05-09T04:11:24.272Z,6.82
2023-05-09T04:14:11.405Z,6.13
2023-05-09T04:16:58.608Z,6.43
2023-05-09T04:19:45.892Z,6.85
2023-05-09T04:22:33.089Z,8.57
2023-05-09T04:25:20.791Z,6.45
2023-05-09T04:28:08.443Z,6.78
2023-05-09T04:30:56.283Z,8.95
2023-05-09T04:33:43.519Z,8.07
2023-05-09T04:36:31.866Z,8.32
2023-05-09T04:39:19.564Z,7.30
2023-05-09T04:42:06.904Z,6.90
2023-05-09T04:44:54.100Z,6.82
2023-05-09T04:47:41.294Z,6.80
2023-05-09T04:50:28.586Z,6.60
2023-05-09T04:53:16.042Z,6.55
2023-05-09T04:56:03.209Z,7.50
2023-05-09T04:58:50.453Z,8.23
2023-05-09T05:01:37.714Z,6.47
2023-05-09T05:04:25.029Z,8.88
2023-05-09T05:07:12.229Z,7.47
2023-05-09T05:09:59.443Z,7.90
2023-05-09T05:12:46.920Z,7.35
2023-05-09T05:15:34.195Z,7.53
2023-05-09T05:18:21.401Z,7.03
2023-05-09T05:21:09.005Z,9.15
2023-05-09T05:23:56.204Z,7.93
2023-05-09T05:26:43.526Z,7.43
2023-05-09T05:29:30.789Z,8.60
2023-05-09T05:32:18.092Z,7.72
2023-05-09T05:35:06.101Z,9.85
2023-05-09T05:37:53.307Z,7.85
2023-05-09T05:40:40.593Z,7.72
2023-05-09T05:43:27.822Z,7.57
2023-05-09T05:46:15.130Z,8.75
2023-05-09T05:49:02.627Z,8.60
2023-05-09T05:51:49.936Z,8.55
2023-05-09T05:54:37.151Z,9.63
2023-05-09T05:57:24.323Z,8.57
2023-05-09T06:00:12.325Z,10.55
2023-05-09T06:02:59.709Z,8.90
2023-05-09T06:05:48.375Z,8.10
2023-05-09T06:08:35.610Z,8.98
2023-05-09T06:11:23.770Z,8.38
2023-05-09T06:14:10.913Z,8.25
2023-05-09T06:16:59.311Z,9.73
2023-05-09T06:19:46.520Z,8.13
2023-05-09T06:22:33.689Z,8.13
2023-05-09T06:25:20.929Z,7.65
2023-05-09T06:28:08.134Z,9.07
2023-05-09T06:30:55.326Z,8.38
2023-05-09T06:33:42.542Z,8.68
2023-05-09T06:36:29.822Z,9.20
2023-05-09T06:39:17.011Z,9.32
2023-05-09T06:42:04.261Z,8.98
2023-05-09T06:44:51.476Z,8.45
2023-05-09T06:47:38.718Z,9.27
2023-05-09T06:50:25.962Z,9.02
2023-05-09T06:53:13.131Z,9.50
2023-05-09T06:56:00.570Z,9.02
2023-05-09T06:58:47.776Z,9.63
2023-05-09T07:01:35.064Z,8.20
2023-05-09T07:04:22.252Z,8.55
2023-05-09T07:07:09.441Z,8.82
2023-05-09T07:10:07.262Z,10.50
2023-05-09T07:12:58.588Z,9.52
2023-05-09T07:15:45.775Z,8.15
2023-05-09T07:18:32.975Z,8.50
2023-05-09T07:21:20.111Z,8.35
2023-05-09T07:24:07.329Z,7.70
2023-05-09T07:26:54.457Z,8.95
2023-05-09T07:29:41.618Z,7.70
2023-05-09T07:32:28.979Z,7.45
2023-05-09T07:35:16.284Z,8.38
2023-05-09T07:38:06.356Z,7.90
2023-05-09T07:40:53.670Z,7.60
2023-05-09T07:43:40.879Z,7.18
2023-05-09T07:46:28.228Z,6.72
2023-05-09T07:49:15.498Z,6.55
2023-05-09T07:52:02.772Z,6.60
2023-05-09T07:54:50.036Z,6.90
2023-05-09T07:57:37.226Z,7.75
2023-05-09T08:00:24.811Z,6.85
2023-05-09T08:03:12.217Z,6.15
2023-05-09T08:05:59.561Z,6.60
2023-05-09T08:08:46.783Z,6.93
2023-05-09T08:11:35.932Z,6.43
2023-05-09T08:14:23.198Z,8.23
2023-05-09T08:17:10.435Z,6.40
2023-05-09T08:19:57.658Z,6.22
2023-05-09T08:22:44.833Z,6.57
2023-05-09T08:25:32.232Z,6.47
2023-05-09T08:28:19.379Z,6.68
2023-05-09T08:31:06.684Z,6.50
2023-05-09T08:33:53.908Z,6.90
2023-05-09T08:36:41.497Z,7.38
2023-05-09T08:39:28.740Z,5.80
2023-05-09T08:42:18.855Z,6.05
2023-05-09T08:45:11.207Z,5.97
2023-05-09T08:47:59.718Z,6.35
2023-05-09T08:50:47.439Z,6.13
2023-05-09T08:53:36.682Z,6.00
2023-05-09T08:56:24.645Z,6.63
2023-05-09T08:59:14.151Z,6.72
2023-05-09T09:02:04.729Z,6.03
2023-05-09T09:04:52.029Z,7.55
2023-05-09T09:07:41.605Z,5.90
2023-05-09T09:10:31.829Z,5.88
2023-05-09T09:13:20.289Z,5.55
2023-05-09T09:16:11.362Z,5.90
2023-05-09T09:19:00.397Z,5.13
2023-05-09T09:21:51.013Z,5.25
2023-05-09T09:24:38.429Z,4.70
2023-05-09T09:27:25.798Z,5.18
2023-05-09T09:30:13.771Z,5.53
2023-05-09T09:33:01.677Z,4.35
2023-05-09T09:35:53.081Z,4.97
2023-05-09T09:38:43.734Z,4.30
2023-05-09T09:41:35.482Z,4.28
2023-05-09T09:44:23.510Z,4.72
2023-05-09T09:47:11.566Z,3.70
2023-05-09T09:49:58.861Z,6.35
2023-05-09T09:52:53.598Z,4.20
2023-05-09T09:55:53.352Z,4.72
2023-05-09T09:58:40.532Z,4.60
2023-05-09T10:01:27.855Z,4.60
2023-05-09T10:04:18.114Z,5.43
2023-05-09T10:07:07.384Z,3.70
2023-05-09T10:09:54.604Z,4.68
2023-05-09T10:12:44.284Z,4.75
2023-05-09T10:15:41.469Z,4.28
2023-05-09T10:18:34.216Z,4.43
2023-05-09T10:21:21.747Z,3.90
2023-05-09T10:24:10.186Z,4.18
2023-05-09T10:27:04.254Z,4.63
2023-05-09T10:30:11.098Z,3.75
2023-05-09T10:33:03.457Z,3.45
2023-05-09T10:35:52.068Z,4.05
2023-05-09T10:38:39.829Z,4.70
2023-05-09T10:41:27.827Z,4.07
2023-05-09T10:44:15.218Z,4.78
2023-05-09T10:47:03.136Z,5.22
2023-05-09T10:49:51.056Z,4.20
2023-05-09T10:53:03.862Z,5.72
2023-05-09T10:55:59.009Z,4.60
2023-05-09T10:58:48.211Z,4.53
2023-05-09T11:01:38.625Z,4.85
2023-05-09T11:04:26.000Z,4.35
2023-05-09T11:07:27.180Z,5.50
2023-05-09T11:10:18.528Z,5.00
2023-05-09T11:13:05.802Z,4.53
2023-05-09T11:16:12.439Z,4.57
2023-05-09T11:18:59.681Z,4.75
2023-05-09T11:22:04.944Z,6.03
2023-05-09T11:25:04.788Z,5.13
2023-05-09T11:27:52.396Z,5.00
2023-05-09T11:30:42.619Z,4.70
2023-05-09T11:33:32.497Z,4.18
2023-05-09T11:36:29.485Z,6.00
2023-05-09T11:39:25.308Z,5.30
2023-05-09T11:42:12.562Z,6.85
2023-05-09T11:44:59.817Z,4.97
2023-05-09T11:47:48.819Z,6.85
2023-05-09T11:50:36.060Z,6.68
2023-05-09T11:53:23.333Z,4.78
2023-05-09T11:56:10.546Z,5.30
2023-05-09T11:58:59.111Z,4.97
2023-05-09T12:01:46.301Z,5.00
2023-05-09T12:04:34.111Z,5.20
2023-05-09T12:07:22.076Z,6.03
2023-05-09T12:10:15.538Z,4.90
2023-05-09T12:13:02.914Z,4.60
2023-05-09T12:15:50.858Z,4.78
2023-05-09T12:18:38.064Z,6.13
2023-05-09T12:21:25.297Z,4.40
2023-05-09T12:24:12.451Z,3.90
2023-05-09T12:27:00.176Z,3.72
2023-05-09T12:29:48.305Z,3.10
2023-05-09T12:32:36.855Z,2.72
2023-05-09T12:35:24.146Z,2.63
2023-05-09T12:38:15.796Z,2.20
2023-05-09T12:41:18.156Z,2.08
2023-05-09T12:44:09.824Z,2.15
2023-05-09T12:46:59.786Z,2.47
2023-05-09T12:49:50.987Z,2.00
2023-05-09T12:52:54.048Z,2.38
2023-05-09T12:55:46.080Z,1.83
2023-05-09T12:58:33.881Z,1.83
2023-05-09T13:01:27.392Z,3.47
2023-05-09T13:04:14.712Z,2.10
2023-05-09T13:07:08.572Z,2.00
2023-05-09T13:10:00.904Z,2.40
2023-05-09T13:12:49.272Z,3.92
2023-05-09T13:15:36.733Z,1.77
2023-05-09T13:18:24.533Z,2.17
2023-05-09T13:21:11.846Z,2.55
2023-05-09T13:23:59.139Z,1.85
2023-05-09T13:26:46.304Z,2.30
2023-05-09T13:29:33.532Z,1.80
2023-05-09T13:32:20.876Z,1.95
2023-05-09T13:35:08.550Z,1.85
2023-05-09T13:37:55.831Z,2.17
2023-05-09T13:40:43.014Z,2.05
2023-05-09T13:43:30.324Z,2.85
2023-05-09T13:46:17.586Z,1.63
2023-05-09T13:49:05.043Z,1.60
2023-05-09T13:51:52.225Z,1.70
2023-05-09T13:54:39.763Z,1.40
2023-05-09T13:57:27.814Z,1.40
2023-05-09T14:00:15.872Z,1.75
2023-05-09T14:03:03.677Z,2.53
2023-05-09T14:05:51.271Z,1.42
2023-05-09T14:08:39.689Z,1.40
2023-05-09T14:11:26.913Z,1.38
2023-05-09T14:14:14.119Z,2.05
2023-05-09T14:17:01.522Z,1.38
2023-05-09T14:19:48.729Z,1.40
2023-05-09T14:22:35.917Z,1.85
2023-05-09T14:25:23.123Z,1.45
2023-05-09T14:28:10.424Z,1.27
2023-05-09T14:30:57.757Z,1.38
2023-05-09T14:33:45.493Z,1.73
2023-05-09T14:36:32.989Z,1.92
2023-05-09T14:39:21.058Z,1.30
2023-05-09T14:42:11.319Z,1.95
2023-05-09T14:44:59.225Z,1.27
2023-05-09T14:47:47.021Z,1.40
2023-05-09T14:50:34.313Z,2.17
2023-05-09T14:53:22.594Z,3.13
2023-05-09T14:56:11.505Z,1.73
2023-05-09T14:58:58.876Z,1.45
2023-05-09T15:01:46.335Z,1.88
2023-05-09T15:04:33.848Z,1.45
2023-05-09T15:07:21.165Z,2.15
2023-05-09T15:10:08.838Z,2.03
2023-05-09T15:12:56.379Z,1.48
2023-05-09T15:15:43.855Z,1.83
2023-05-09T15:18:31.577Z,1.50
2023-05-09T15:21:18.794Z,1.83
2023-05-09T15:24:06.507Z,2.67
2023-05-09T15:26:54.310Z,2.03
2023-05-09T15:29:41.980Z,1.55
2023-05-09T15:32:29.193Z,1.42
2023-05-09T15:35:18.261Z,1.50
2023-05-09T15:38:05.519Z,1.52
2023-05-09T15:40:52.773Z,2.15
2023-05-09T15:43:39.898Z,1.70
2023-05-09T15:46:27.342Z,1.83
2023-05-09T15:49:14.526Z,1.60
2023-05-09T15:52:09.450Z,2.30
2023-05-09T15:54:56.773Z,1.67
2023-05-09T15:57:45.255Z,1.50
2023-05-09T16:00:32.974Z,1.80
2023-05-09T16:03:20.296Z,1.85
2023-05-09T16:06:07.775Z,1.83
2023-05-09T16:08:54.988Z,1.70
2023-05-09T16:11:42.467Z,1.60
2023-05-09T16:14:29.835Z,2.33
2023-05-09T16:17:16.986Z,2.53
2023-05-09T16:20:04.686Z,3.05
2023-05-09T16:22:51.890Z,3.58
2023-05-09T16:25:39.139Z,3.22
2023-05-09T16:28:28.016Z,2.53
2023-05-09T16:31:15.369Z,2.75
2023-05-09T16:34:02.930Z,2.75
2023-05-09T16:36:50.215Z,3.00
2023-05-09T16:39:37.470Z,3.90
2023-05-09T16:42:24.676Z,5.07
2023-05-09T16:45:11.988Z,3.33
2023-05-09T16:48:01.990Z,3.60
2023-05-09T16:50:53.595Z,3.17
2023-05-09T16:53:41.265Z,3.35
2023-05-09T16:56:28.672Z,4.22
2023-05-09T16:59:16.152Z,3.35
2023-05-09T17:02:04.562Z,3.63
2023-05-09T17:04:51.873Z,3.85
2023-05-09T17:07:39.198Z,5.20
2023-05-09T17:10:26.545Z,6.78
2023-05-09T17:13:13.740Z,5.40
2023-05-09T17:16:01.074Z,3.90
2023-05-09T17:18:48.391Z,3.67
2023-05-09T17:21:35.924Z,3.70
2023-05-09T17:24:23.286Z,3.53
2023-05-09T17:27:11.618Z,3.85
2023-05-09T17:30:03.077Z,3.80
2023-05-09T17:32:50.505Z,4.07
2023-05-09T17:35:38.933Z,3.58
2023-05-09T17:38:26.288Z,3.75
2023-05-09T17:41:13.563Z,4.05
2023-05-09T17:44:00.911Z,3.80
2023-05-09T17:46:49.122Z,3.63
2023-05-09T17:49:36.578Z,3.97
2023-05-09T17:52:23.746Z,4.38
2023-05-09T17:55:11.701Z,3.78
2023-05-09T17:57:58.854Z,3.88
2023-05-09T18:00:46.072Z,3.67
2023-05-09T18:03:33.420Z,3.70
2023-05-09T18:06:20.926Z,3.60
2023-05-09T18:09:08.104Z,3.90
2023-05-09T18:11:55.292Z,4.05
2023-05-09T18:14:42.491Z,4.85
2023-05-09T18:17:29.716Z,4.35
2023-05-09T18:20:17.255Z,4.32
2023-05-09T18:23:04.720Z,4.35
2023-05-09T18:25:54.036Z,5.25
2023-05-09T18:28:41.337Z,13.23
2023-05-09T18:31:28.758Z,11.48
2023-05-09T18:34:16.105Z,6.53
2023-05-09T18:37:03.321Z,6.25
2023-05-09T18:39:50.532Z,6.07
2023-05-09T18:42:37.769Z,5.88
2023-05-09T18:45:25.370Z,4.75
2023-05-09T18:48:13.345Z,5.20
2023-05-09T18:51:00.928Z,4.90
2023-05-09T18:53:48.524Z,5.20
2023-05-09T18:56:39.293Z,6.18
2023-05-09T18:59:26.790Z,8.50
2023-05-09T19:02:13.977Z,7.78
2023-05-09T19:05:05.667Z,6.80
2023-05-09T19:07:54.120Z,6.28
2023-05-09T19:10:41.648Z,6.40
2023-05-09T19:13:29.062Z,6.75
2023-05-09T19:16:18.792Z,6.15
2023-05-09T19:19:06.051Z,5.97
2023-05-09T19:21:53.216Z,6.32
2023-05-09T19:24:41.240Z,6.95
2023-05-09T19:27:28.488Z,6.88
2023-05-09T19:30:16.051Z,6.80
2023-05-09T19:33:03.801Z,7.18
2023-05-09T19:35:51.088Z,7.15
2023-05-09T19:38:38.486Z,8.43
2023-05-09T19:41:26.051Z,6.72
2023-05-09T19:44:13.239Z,8.30
2023-05-09T19:47:01.042Z,7.57
2023-05-09T19:49:48.232Z,6.93
2023-05-09T19:52:37.234Z,8.18
2023-05-09T19:55:24.506Z,8.85
2023-05-09T19:58:11.795Z,8.13
2023-05-09T20:00:59.233Z,8.48
2023-05-09T20:03:47.087Z,9.05
2023-05-09T20:06:34.370Z,7.85
2023-05-09T20:09:21.684Z,8.38
2023-05-09T20:12:09.696Z,8.48
2023-05-09T20:14:56.895Z,8.77
2023-05-09T20:17:44.666Z,8.63
2023-05-09T20:20:32.327Z,9.77
2023-05-09T20:23:19.516Z,9.45
2023-05-09T20:26:06.865Z,9.13
2023-05-09T20:29:01.426Z,9.27
2023-05-09T20:31:48.787Z,8.32
2023-05-09T20:34:35.994Z,8.50
2023-05-09T20:37:23.242Z,9.93
2023-05-09T20:40:10.734Z,7.50
2023-05-09T20:42:58.103Z,6.60
2023-05-09T20:45:45.384Z,6.10
2023-05-09T20:48:33.243Z,6.15
2023-05-09T20:51:20.419Z,6.20
2023-05-09T20:54:07.706Z,5.75
2023-05-09T20:56:54.973Z,5.50
2023-05-09T20:59:42.286Z,5.53
2023-05-09T21:02:30.130Z,6.05
2023-05-09T21:05:17.619Z,5.40
2023-05-09T21:08:04.989Z,5.80
2023-05-09T21:10:52.903Z,5.38
2023-05-09T21:13:40.116Z,4.90
2023-05-09T21:16:28.449Z,5.13
2023-05-09T21:19:15.661Z,4.47
2023-05-09T21:22:02.935Z,4.88
2023-05-09T21:24:50.914Z,5.43
2023-05-09T21:27:38.293Z,4.95
2023-05-09T21:30:25.587Z,5.88
2023-05-09T21:33:12.838Z,6.45
2023-05-09T21:36:00.163Z,5.95
2023-05-09T21:38:47.353Z,5.15
2023-05-09T21:41:38.367Z,5.05
2023-05-09T21:44:25.724Z,5.10
2023-05-09T21:47:13.145Z,5.25
2023-05-09T21:50:00.754Z,5.63
2023-05-09T21:52:48.010Z,5.95
2023-05-09T21:55:35.331Z,5.22
2023-05-09T21:58:22.528Z,6.93
2023-05-09T22:01:10.253Z,6.75
2023-05-09T22:03:57.901Z,5.72
2023-05-09T22:06:45.101Z,6.88
2023-05-09T22:09:33.191Z,6.32
2023-05-09T22:12:20.473Z,6.53
2023-05-09T22:15:08.843Z,8.63
2023-05-09T22:17:56.096Z,6.20
2023-05-09T22:20:43.318Z,7.15
2023-05-09T22:23:30.651Z,7.25
2023-05-09T22:26:17.848Z,7.35
2023-05-09T22:29:05.094Z,7.68
2023-05-09T22:31:52.442Z,7.38
2023-05-09T22:34:39.626Z,7.97
2023-05-09T22:37:26.983Z,8.63
2023-05-09T22:40:14.441Z,8.63
2023-05-09T22:43:01.882Z,7.35
2023-05-09T22:45:49.185Z,7.93
2023-05-09T22:48:36.429Z,8.23
2023-05-09T22:51:24.010Z,7.05
2023-05-09T22:54:11.294Z,8.00
2023-05-09T22:56:58.475Z,6.78
2023-05-09T22:59:46.378Z,8.88
2023-05-09T23:02:33.586Z,7.88
2023-05-09T23:05:20.859Z,9.13
2023-05-09T23:08:08.083Z,9.60
2023-05-09T23:10:55.298Z,7.63
2023-05-09T23:13:42.694Z,8.73
2023-05-09T23:16:29.915Z,10.45
2023-05-09T23:19:17.258Z,8.07
2023-05-09T23:22:04.675Z,6.95
2023-05-09T23:24:51.836Z,8.52
2023-05-09T23:27:40.752Z,6.65
2023-05-09T23:30:28.280Z,8.48
2023-05-09T23:33:16.239Z,6.90
2023-05-09T23:36:04.201Z,7.25
2023-05-09T23:38:51.381Z,7.72
2023-05-09T23:41:38.902Z,8.23
2023-05-09T23:44:26.181Z,8.73
2023-05-09T23:47:13.398Z,7.78
2023-05-09T23:50:00.620Z,5.53
2023-05-09T23:52:49.324Z,6.85
2023-05-09T23:55:37.299Z,9.25
2023-05-09T23:58:24.781Z,8.93
